createdAt,value
2018-06-14T00:01:53.384Z,9.20
2018-06-14T00:04:21.934Z,9.20
2018-06-14T00:06:50.451Z,9.30
2018-06-14T00:09:18.896Z,9.20
2018-06-14T00:11:47.328Z,9.20
2018-06-14T00:14:15.897Z,9.20
2018-06-14T00:16:44.328Z,9.10
2018-06-14T00:19:12.807Z,9.10
2018-06-14T00:21:41.253Z,9.10
2018-06-14T00:24:09.685Z,9.20
2018-06-14T00:26:38.617Z,9.10
2018-06-14T00:29:07.112Z,9.00
2018-06-14T00:31:35.575Z,9.10
2018-06-14T00:34:04.012Z,9.10
2018-06-14T00:36:32.479Z,9.00
2018-06-14T00:39:00.914Z,9.00
2018-06-14T00:41:29.357Z,9.00
2018-06-14T00:43:57.988Z,9.10
2018-06-14T00:46:26.468Z,9.00
2018-06-14T00:48:54.923Z,9.10
2018-06-14T00:51:23.413Z,9.10
2018-06-14T00:53:52.112Z,9.20
2018-06-14T00:56:20.564Z,9.10
2018-06-14T00:58:49.047Z,9.00
2018-06-14T01:01:17.530Z,9.00
2018-06-14T01:03:45.958Z,9.00
2018-06-14T01:06:14.441Z,8.90
2018-06-14T01:08:42.883Z,8.90
2018-06-14T01:11:11.343Z,8.90
2018-06-14T01:13:39.825Z,8.90
2018-06-14T01:16:08.364Z,9.00
2018-06-14T01:18:36.796Z,9.00
2018-06-14T01:21:05.263Z,8.90
2018-06-14T01:23:33.722Z,8.90
2018-06-14T01:26:02.247Z,9.00
2018-06-14T01:28:30.731Z,8.90
2018-06-14T01:30:59.205Z,9.00
2018-06-14T01:33:27.651Z,9.10
2018-06-14T01:35:56.210Z,9.10
2018-06-14T01:38:26.527Z,9.10
2018-06-14T01:40:55.324Z,9.20
2018-06-14T01:43:24.125Z,9.20
2018-06-14T01:45:52.707Z,9.10
2018-06-14T01:48:21.173Z,9.10
2018-06-14T01:50:49.651Z,9.10
2018-06-14T01:53:18.103Z,9.00
2018-06-14T01:55:46.647Z,9.00
2018-06-14T01:58:15.155Z,9.00
2018-06-14T02:00:43.622Z,9.00
2018-06-14T02:03:12.208Z,9.00
2018-06-14T02:05:40.675Z,9.00
2018-06-14T02:08:09.154Z,9.00
2018-06-14T02:10:37.562Z,9.10
2018-06-14T02:13:06.044Z,9.20
2018-06-14T02:15:34.583Z,9.30
2018-06-14T02:18:03.039Z,9.30
2018-06-14T02:20:31.508Z,9.30
2018-06-14T02:25:28.204Z,9.50
2018-06-14T02:27:56.687Z,9.60
2018-06-14T02:30:25.121Z,9.70
2018-06-14T02:32:53.598Z,9.60
2018-06-14T02:35:22.090Z,9.60
2018-06-14T02:37:50.559Z,9.50
2018-06-14T02:40:19.001Z,9.60
2018-06-14T02:42:47.490Z,9.60
2018-06-14T02:45:16.040Z,9.50
2018-06-14T02:47:44.557Z,9.40
2018-06-14T02:50:13.051Z,9.40
2018-06-14T02:52:41.607Z,9.40
2018-06-14T02:55:10.102Z,9.40
2018-06-14T02:57:38.597Z,9.30
2018-06-14T03:00:07.713Z,9.20
2018-06-14T03:02:36.559Z,9.30
2018-06-14T03:05:05.133Z,9.30
2018-06-14T03:07:34.527Z,9.30
2018-06-14T03:10:03.935Z,9.30
2018-06-14T03:12:32.537Z,9.30
2018-06-14T03:15:01.112Z,9.30
2018-06-14T03:17:29.592Z,9.30
2018-06-14T03:19:58.060Z,9.30
2018-06-14T03:22:27.282Z,9.30
2018-06-14T03:24:55.728Z,9.40
2018-06-14T03:27:24.202Z,9.40
2018-06-14T03:29:52.671Z,9.40
2018-06-14T03:32:21.211Z,9.30
2018-06-14T03:34:49.693Z,9.20
2018-06-14T03:37:18.158Z,9.20
2018-06-14T03:39:46.601Z,9.20
2018-06-14T03:42:15.992Z,9.20
2018-06-14T03:44:44.510Z,9.40
2018-06-14T03:49:42.125Z,9.60
2018-06-14T03:52:11.810Z,9.80
2018-06-14T03:54:40.611Z,9.90
2018-06-14T03:57:09.499Z,9.80
2018-06-14T03:59:37.974Z,9.80
2018-06-14T04:02:06.879Z,9.90
2018-06-14T04:04:35.469Z,10.10
2018-06-14T04:07:03.938Z,10.20
2018-06-14T04:09:32.493Z,10.20
2018-06-14T04:12:01.064Z,10.20
2018-06-14T04:14:29.605Z,10.20
2018-06-14T04:16:58.059Z,10.20
2018-06-14T04:19:26.582Z,10.40
2018-06-14T04:21:55.069Z,10.50
2018-06-14T04:24:23.632Z,10.60
2018-06-14T04:26:52.115Z,10.80
2018-06-14T04:29:20.549Z,10.90
2018-06-14T04:31:49.054Z,11.00
2018-06-14T04:34:17.528Z,11.10
2018-06-14T04:36:45.984Z,11.30
2018-06-14T04:39:14.439Z,11.50
2018-06-14T04:41:43.083Z,11.60
2018-06-14T04:44:11.625Z,11.70
2018-06-14T04:46:40.080Z,11.80
2018-06-14T04:49:08.664Z,11.90
2018-06-14T04:51:42.144Z,12.10
2018-06-14T04:54:10.827Z,12.20
2018-06-14T04:56:39.329Z,12.40
2018-06-14T04:59:07.792Z,12.50
2018-06-14T05:01:36.392Z,12.60
2018-06-14T05:04:04.900Z,12.80
2018-06-14T05:06:33.513Z,12.90
2018-06-14T05:09:01.980Z,13.00
2018-06-14T05:11:30.445Z,13.10
2018-06-14T05:13:58.904Z,13.20
2018-06-14T05:16:27.553Z,13.30
2018-06-14T05:18:56.164Z,13.50
2018-06-14T05:21:24.657Z,13.60
2018-06-14T05:23:53.124Z,13.70
2018-06-14T05:26:21.572Z,13.90
2018-06-14T05:28:50.022Z,14.00
2018-06-14T05:31:18.511Z,14.10
2018-06-14T05:33:47.024Z,14.30
2018-06-14T05:36:15.857Z,14.40
2018-06-14T05:38:44.335Z,14.40
2018-06-14T05:41:13.118Z,14.20
2018-06-14T05:43:41.609Z,14.00
2018-06-14T05:46:10.153Z,13.90
2018-06-14T05:48:38.639Z,14.40
2018-06-14T05:51:07.260Z,14.90
2018-06-14T05:53:35.723Z,15.30
2018-06-14T05:56:04.233Z,15.60
2018-06-14T05:58:32.807Z,15.90
2018-06-14T06:01:01.290Z,16.20
2018-06-14T06:03:29.722Z,16.30
2018-06-14T06:05:58.164Z,16.20
2018-06-14T06:08:26.723Z,16.20
2018-06-14T06:10:55.178Z,16.40
2018-06-14T06:13:23.624Z,16.70
2018-06-14T06:15:52.080Z,16.80
2018-06-14T06:18:20.512Z,17.30
2018-06-14T06:20:49.021Z,17.80
2018-06-14T06:23:17.484Z,18.10
2018-06-14T06:25:45.952Z,18.40
2018-06-14T06:28:14.385Z,18.90
2018-06-14T06:30:43.115Z,18.90
2018-06-14T06:33:11.739Z,19.30
2018-06-14T06:35:40.248Z,19.60
2018-06-14T06:38:08.748Z,20.00
2018-06-14T06:40:37.196Z,20.30
2018-06-14T06:43:05.687Z,20.50
2018-06-14T06:45:34.152Z,20.70
2018-06-14T06:48:02.608Z,20.20
2018-06-14T06:50:31.058Z,19.70
2018-06-14T06:52:59.526Z,19.40
2018-06-14T06:55:27.974Z,19.30
2018-06-14T06:57:56.416Z,19.20
2018-06-14T07:00:24.896Z,19.60
2018-06-14T07:02:53.340Z,19.90
2018-06-14T07:05:21.791Z,20.70
2018-06-14T07:07:50.262Z,21.50
2018-06-14T07:10:18.761Z,22.10
2018-06-14T07:12:47.230Z,22.60
2018-06-14T07:15:15.698Z,22.80
2018-06-14T07:17:44.196Z,22.80
2018-06-14T07:20:12.696Z,22.90
2018-06-14T07:22:41.165Z,22.70
2018-06-14T07:25:09.608Z,22.70
2018-06-14T07:27:38.113Z,22.80
2018-06-14T07:30:06.737Z,22.60
2018-06-14T07:32:35.225Z,22.50
2018-06-14T07:35:03.814Z,22.60
2018-06-14T07:37:32.290Z,22.60
2018-06-14T07:40:00.731Z,23.20
2018-06-14T07:42:29.165Z,22.80
2018-06-14T07:44:57.635Z,22.60
2018-06-14T07:47:26.105Z,22.80
2018-06-14T07:49:54.544Z,23.30
2018-06-14T07:52:23.024Z,23.50
2018-06-14T07:54:51.482Z,23.00
2018-06-14T07:57:19.961Z,22.70
2018-06-14T07:59:48.436Z,23.00
2018-06-14T08:02:16.874Z,23.40
2018-06-14T08:04:45.343Z,23.20
2018-06-14T08:07:13.938Z,23.10
2018-06-14T08:09:42.443Z,23.40
2018-06-14T08:12:10.917Z,22.60
2018-06-14T08:14:39.400Z,22.40
2018-06-14T08:17:07.520Z,23.00
2018-06-14T08:19:35.989Z,22.80
2018-06-14T08:22:04.516Z,22.80
2018-06-14T08:27:01.105Z,22.80
2018-06-14T08:29:29.581Z,23.50
2018-06-14T08:31:58.028Z,23.20
2018-06-14T08:34:26.476Z,23.70
2018-06-14T08:36:55.016Z,24.10
2018-06-14T08:39:23.472Z,23.20
2018-06-14T08:41:51.918Z,23.10
2018-06-14T08:44:20.385Z,23.20
2018-06-14T08:46:49.038Z,23.70
2018-06-14T08:49:17.494Z,23.80
2018-06-14T08:51:46.033Z,24.60
2018-06-14T08:54:14.484Z,25.00
2018-06-14T08:59:11.266Z,25.40
2018-06-14T09:01:39.710Z,26.00
2018-06-14T09:04:08.162Z,25.60
2018-06-14T09:06:36.642Z,25.40
2018-06-14T09:09:07.649Z,25.80
2018-06-14T09:11:36.102Z,26.60
2018-06-14T09:14:04.588Z,26.00
2018-06-14T09:16:33.036Z,25.90
2018-06-14T09:19:01.485Z,25.10
2018-06-14T09:21:30.049Z,24.50
2018-06-14T09:23:58.559Z,23.70
2018-06-14T09:26:26.999Z,24.60
2018-06-14T09:28:55.462Z,24.90
2018-06-14T09:31:23.981Z,26.10
2018-06-14T09:33:52.557Z,26.80
2018-06-14T09:36:21.017Z,27.10
2018-06-14T09:38:49.530Z,26.10
2018-06-14T09:41:17.983Z,25.40
2018-06-14T09:43:46.442Z,24.80
2018-06-14T09:46:14.880Z,24.30
2018-06-14T09:48:43.334Z,23.70
2018-06-14T09:51:11.828Z,23.40
2018-06-14T09:53:40.313Z,23.30
2018-06-14T09:56:08.752Z,23.50
2018-06-14T09:58:37.239Z,23.60
2018-06-14T10:01:05.685Z,23.90
2018-06-14T10:03:34.145Z,23.40
2018-06-14T10:06:02.715Z,23.50
2018-06-14T10:08:31.150Z,23.80
2018-06-14T10:10:59.695Z,24.10
2018-06-14T10:13:28.165Z,24.10
2018-06-14T10:15:57.157Z,24.70
2018-06-14T10:18:25.956Z,24.30
2018-06-14T10:20:54.429Z,24.80
2018-06-14T10:23:22.861Z,24.20
2018-06-14T10:25:51.326Z,23.80
2018-06-14T10:28:19.800Z,23.50
2018-06-14T10:30:48.255Z,23.50
2018-06-14T10:33:16.714Z,23.20
2018-06-14T10:35:45.177Z,22.70
2018-06-14T10:38:13.623Z,22.90
2018-06-14T10:40:42.089Z,23.20
2018-06-14T10:43:10.610Z,22.90
2018-06-14T10:45:39.084Z,23.30
2018-06-14T10:48:07.911Z,24.00
2018-06-14T10:50:36.393Z,24.80
2018-06-14T10:53:04.928Z,25.10
2018-06-14T10:55:33.356Z,25.50
2018-06-14T10:58:01.819Z,26.20
2018-06-14T11:00:30.323Z,26.90
2018-06-14T11:02:58.831Z,26.30
2018-06-14T11:05:27.453Z,25.60
2018-06-14T11:07:56.594Z,25.70
2018-06-14T11:10:25.059Z,26.00
2018-06-14T11:12:53.517Z,26.10
2018-06-14T11:15:21.996Z,26.20
2018-06-14T11:17:50.460Z,27.00
2018-06-14T11:20:19.005Z,27.30
2018-06-14T11:22:47.448Z,28.00
2018-06-14T11:25:16.012Z,28.30
2018-06-14T11:27:44.541Z,27.20
2018-06-14T11:30:12.980Z,26.30
2018-06-14T11:32:41.431Z,26.40
2018-06-14T11:35:09.875Z,27.80
2018-06-14T11:37:38.332Z,28.20
2018-06-14T11:40:06.903Z,28.70
2018-06-14T11:42:35.401Z,27.50
2018-06-14T11:45:04.140Z,26.30
2018-06-14T11:47:32.599Z,26.30
2018-06-14T11:50:01.216Z,26.50
2018-06-14T11:52:29.647Z,26.60
2018-06-14T11:54:58.120Z,25.70
2018-06-14T11:57:26.602Z,25.30
2018-06-14T11:59:55.156Z,25.00
2018-06-14T12:02:23.835Z,24.70
2018-06-14T12:04:52.967Z,24.80
2018-06-14T12:07:21.410Z,24.90
2018-06-14T12:09:49.862Z,24.80
2018-06-14T12:12:18.326Z,25.20
2018-06-14T12:14:47.220Z,24.60
2018-06-14T12:17:15.652Z,24.70
2018-06-14T12:19:44.110Z,24.40
2018-06-14T12:22:12.592Z,23.50
2018-06-14T12:24:41.031Z,22.90
2018-06-14T12:27:09.509Z,22.70
2018-06-14T12:29:38.061Z,22.20
2018-06-14T12:32:06.545Z,22.10
2018-06-14T12:34:35.581Z,21.50
2018-06-14T12:37:04.049Z,21.30
2018-06-14T12:39:32.547Z,20.90
2018-06-14T12:42:01.121Z,20.80
2018-06-14T12:44:29.678Z,20.90
2018-06-14T12:46:58.123Z,21.00
2018-06-14T12:49:26.595Z,21.10
2018-06-14T12:51:55.072Z,21.30
2018-06-14T12:54:24.044Z,21.20
2018-06-14T12:56:52.496Z,21.20
2018-06-14T12:59:20.931Z,21.20
2018-06-14T13:01:49.381Z,20.90
2018-06-14T13:04:17.861Z,21.10
2018-06-14T13:06:46.358Z,20.60
2018-06-14T13:09:14.896Z,20.60
2018-06-14T13:11:43.357Z,20.70
2018-06-14T13:14:12.864Z,20.90
2018-06-14T13:16:42.313Z,21.00
2018-06-14T13:19:10.882Z,21.20
2018-06-14T13:21:39.463Z,21.10
2018-06-14T13:24:07.923Z,21.00
2018-06-14T13:26:36.381Z,21.00
2018-06-14T13:29:04.910Z,20.90
2018-06-14T13:31:33.351Z,20.70
2018-06-14T13:34:01.888Z,20.50
2018-06-14T13:36:30.339Z,20.50
2018-06-14T13:38:58.783Z,20.40
2018-06-14T13:41:27.360Z,20.20
2018-06-14T13:43:55.822Z,20.00
2018-06-14T13:46:24.318Z,19.90
2018-06-14T13:48:52.870Z,19.90
2018-06-14T13:51:21.336Z,19.90
2018-06-14T13:53:49.788Z,19.90
2018-06-14T13:56:18.264Z,19.70
2018-06-14T13:58:46.735Z,19.60
2018-06-14T14:01:15.312Z,19.50
2018-06-14T14:03:43.719Z,19.60
2018-06-14T14:06:12.188Z,19.50
2018-06-14T14:08:40.776Z,19.30
2018-06-14T14:11:09.231Z,19.20
2018-06-14T14:13:37.685Z,19.10
2018-06-14T14:16:06.191Z,19.00
2018-06-14T14:18:34.879Z,19.00
2018-06-14T14:21:03.351Z,18.90
2018-06-14T14:23:31.820Z,18.90
2018-06-14T14:26:00.334Z,18.90
2018-06-14T14:28:28.785Z,18.80
2018-06-14T14:30:57.246Z,18.80
2018-06-14T14:33:25.718Z,18.60
2018-06-14T14:35:54.216Z,18.50
2018-06-14T14:38:22.920Z,18.30
2018-06-14T14:40:51.481Z,18.20
2018-06-14T14:43:20.009Z,18.10
2018-06-14T14:45:49.453Z,18.20
2018-06-14T14:48:17.933Z,18.30
2018-06-14T14:50:46.408Z,18.20
2018-06-14T14:53:14.967Z,18.10
2018-06-14T14:55:43.361Z,18.00
2018-06-14T14:58:11.828Z,18.00
2018-06-14T15:00:40.301Z,18.10
2018-06-14T15:03:08.795Z,18.20
2018-06-14T15:05:37.249Z,18.40
2018-06-14T15:08:05.733Z,18.50
2018-06-14T15:10:34.225Z,18.60
2018-06-14T15:13:02.709Z,18.70
2018-06-14T15:15:31.200Z,18.80
2018-06-14T15:17:59.673Z,18.90
2018-06-14T15:20:28.094Z,19.00
2018-06-14T15:22:56.576Z,19.10
2018-06-14T15:25:25.071Z,19.20
2018-06-14T15:27:53.520Z,19.50
2018-06-14T15:30:21.971Z,19.90
2018-06-14T15:32:50.440Z,20.70
2018-06-14T15:35:18.875Z,21.30
2018-06-14T15:37:47.332Z,21.70
2018-06-14T15:40:15.804Z,21.30
2018-06-14T15:42:44.285Z,21.30
2018-06-14T15:45:12.727Z,21.30
2018-06-14T15:47:41.338Z,21.10
2018-06-14T15:50:09.909Z,20.90
2018-06-14T15:52:38.393Z,20.80
2018-06-14T15:57:40.663Z,20.40
2018-06-14T16:00:09.145Z,20.40
2018-06-14T16:02:37.611Z,20.20
2018-06-14T16:05:06.091Z,20.10
2018-06-14T16:07:34.614Z,20.00
2018-06-14T16:10:03.205Z,19.90
2018-06-14T16:12:31.709Z,19.90
2018-06-14T16:15:00.289Z,19.90
2018-06-14T16:17:28.767Z,19.90
2018-06-14T16:19:57.236Z,19.90
2018-06-14T16:22:25.709Z,19.90
2018-06-14T16:24:54.160Z,19.90
2018-06-14T16:27:22.615Z,19.90
2018-06-14T16:29:51.151Z,19.90
2018-06-14T16:32:19.877Z,20.10
2018-06-14T16:34:48.404Z,20.10
2018-06-14T16:37:16.859Z,20.30
2018-06-14T16:39:45.327Z,20.70
2018-06-14T16:42:13.772Z,20.60
2018-06-14T16:44:42.222Z,20.70
2018-06-14T16:47:10.682Z,20.50
2018-06-14T16:49:39.163Z,20.40
2018-06-14T16:52:07.607Z,20.20
2018-06-14T16:54:36.084Z,20.00
2018-06-14T16:57:04.559Z,20.00
2018-06-14T16:59:33.089Z,20.00
2018-06-14T17:02:01.652Z,19.90
2018-06-14T17:04:30.132Z,19.70
2018-06-14T17:06:58.597Z,19.70
2018-06-14T17:09:27.097Z,19.70
2018-06-14T17:11:55.526Z,19.50
2018-06-14T17:14:23.956Z,19.40
2018-06-14T17:16:52.533Z,19.30
2018-06-14T17:19:20.984Z,19.10
2018-06-14T17:24:18.273Z,18.90
2018-06-14T17:26:46.744Z,18.80
2018-06-14T17:29:15.217Z,18.60
2018-06-14T17:31:43.951Z,18.40
2018-06-14T17:34:12.533Z,18.20
2018-06-14T17:36:41.012Z,17.90
2018-06-14T17:39:09.604Z,17.80
2018-06-14T17:41:38.807Z,17.70
2018-06-14T17:44:07.578Z,17.70
2018-06-14T17:49:05.337Z,17.80
2018-06-14T17:51:33.866Z,17.90
2018-06-14T17:54:02.344Z,18.00
2018-06-14T17:56:30.914Z,17.90
2018-06-14T17:58:59.737Z,17.90
2018-06-14T18:01:28.270Z,18.00
2018-06-14T18:03:56.772Z,18.00
2018-06-14T18:06:25.274Z,18.10
2018-06-14T18:08:53.739Z,18.10
2018-06-14T18:11:22.409Z,18.30
2018-06-14T18:13:50.861Z,18.20
2018-06-14T18:16:19.356Z,18.30
2018-06-14T18:18:48.057Z,18.30
2018-06-14T18:21:16.654Z,18.20
2018-06-14T18:23:45.190Z,18.20
2018-06-14T18:28:41.811Z,18.10
2018-06-14T18:31:10.288Z,18.00
2018-06-14T18:33:38.781Z,18.00
2018-06-14T18:36:07.374Z,17.90
2018-06-14T18:38:35.848Z,17.90
2018-06-14T18:41:04.578Z,17.80
2018-06-14T18:43:33.327Z,17.90
2018-06-14T18:46:01.891Z,18.00
2018-06-14T18:48:30.551Z,18.00
2018-06-14T18:50:58.985Z,18.20
2018-06-14T18:53:27.490Z,18.10
2018-06-14T18:55:55.977Z,18.20
2018-06-14T18:58:24.449Z,18.20
2018-06-14T19:03:21.193Z,18.20
2018-06-14T19:05:49.668Z,18.10
2018-06-14T19:08:18.651Z,18.20
2018-06-14T19:10:47.096Z,18.10
2018-06-14T19:13:15.675Z,18.10
2018-06-14T19:18:12.343Z,18.00
2018-06-14T19:20:40.898Z,18.00
2018-06-14T19:23:09.424Z,17.90
2018-06-14T19:25:38.010Z,17.80
2018-06-14T19:28:06.546Z,17.80
2018-06-14T19:30:35.080Z,17.90
2018-06-14T19:33:03.538Z,17.80
2018-06-14T19:35:31.987Z,17.80
2018-06-14T19:38:00.568Z,17.80
2018-06-14T19:42:57.343Z,17.80
2018-06-14T19:45:25.821Z,17.60
2018-06-14T19:47:54.297Z,17.50
2018-06-14T19:50:22.784Z,17.30
2018-06-14T19:52:51.308Z,17.00
2018-06-14T19:55:19.821Z,16.80
2018-06-14T19:57:48.299Z,16.70
2018-06-14T20:00:16.855Z,16.50
2018-06-14T20:02:45.330Z,16.40
2018-06-14T20:05:13.798Z,16.30
2018-06-14T20:07:42.315Z,16.20
2018-06-14T20:10:11.083Z,16.20
2018-06-14T20:12:39.553Z,16.20
2018-06-14T20:15:08.072Z,16.20
2018-06-14T20:17:36.761Z,16.10
2018-06-14T20:20:07.298Z,16.10
2018-06-14T20:22:35.855Z,16.10
2018-06-14T20:25:04.448Z,16.10
2018-06-14T20:27:33.560Z,16.20
2018-06-14T20:30:02.494Z,16.20
2018-06-14T20:32:31.120Z,16.20
2018-06-14T20:34:59.600Z,16.20
2018-06-14T20:37:28.135Z,16.20
2018-06-14T20:39:56.594Z,16.30
2018-06-14T20:42:25.070Z,16.20
2018-06-14T20:44:53.561Z,16.20
2018-06-14T20:47:22.017Z,16.30
2018-06-14T20:49:50.519Z,16.30
2018-06-14T20:52:19.244Z,16.20
2018-06-14T20:54:47.717Z,16.20
2018-06-14T20:57:16.327Z,16.10
2018-06-14T20:59:44.930Z,16.10
2018-06-14T21:02:13.390Z,16.00
2018-06-14T21:04:41.993Z,16.00
2018-06-14T21:07:11.304Z,16.00
2018-06-14T21:09:39.759Z,15.90
2018-06-14T21:12:08.208Z,15.90
2018-06-14T21:14:36.672Z,15.90
2018-06-14T21:17:05.144Z,15.90
2018-06-14T21:19:33.610Z,15.90
2018-06-14T21:22:02.091Z,15.90
2018-06-14T21:24:30.580Z,15.90
2018-06-14T21:26:59.021Z,15.80
2018-06-14T21:29:27.542Z,15.80
2018-06-14T21:31:56.013Z,15.80
2018-06-14T21:34:24.468Z,15.80
2018-06-14T21:36:52.948Z,15.80
2018-06-14T21:39:21.398Z,15.70
2018-06-14T21:41:49.858Z,15.70
2018-06-14T21:44:18.436Z,15.60
2018-06-14T21:46:47.033Z,15.60
2018-06-14T21:49:15.535Z,15.50
2018-06-14T21:51:44.056Z,15.50
2018-06-14T21:54:12.649Z,15.50
2018-06-14T21:56:41.140Z,15.40
2018-06-14T21:59:09.645Z,15.40
2018-06-14T22:01:38.117Z,15.40
2018-06-14T22:04:06.684Z,15.40
2018-06-14T22:06:35.163Z,15.40
2018-06-14T22:09:04.668Z,15.50
2018-06-14T22:11:34.093Z,15.50
2018-06-14T22:14:02.589Z,15.50
2018-06-14T22:16:31.108Z,15.60
2018-06-14T22:18:59.691Z,15.60
2018-06-14T22:21:28.164Z,15.60
2018-06-14T22:23:56.654Z,15.70
2018-06-14T22:26:25.113Z,15.70
2018-06-14T22:28:53.596Z,15.70
2018-06-14T22:31:22.049Z,15.80
2018-06-14T22:34:01.947Z,15.80
2018-06-14T22:36:30.474Z,15.80
2018-06-14T22:38:58.940Z,15.80
2018-06-14T22:41:27.454Z,15.80
2018-06-14T22:43:55.944Z,15.80
2018-06-14T22:46:24.408Z,15.70
2018-06-14T22:48:52.908Z,15.70
2018-06-14T22:51:22.170Z,15.70
2018-06-14T22:53:50.628Z,15.70
2018-06-14T22:56:19.110Z,15.70
2018-06-14T22:58:47.843Z,15.70
2018-06-14T23:01:25.479Z,15.70
2018-06-14T23:03:53.903Z,15.70
2018-06-14T23:06:22.386Z,15.80
2018-06-14T23:08:50.858Z,15.80
2018-06-14T23:13:48.484Z,15.80
2018-06-14T23:16:17.118Z,15.90
2018-06-14T23:18:45.555Z,15.90
2018-06-14T23:21:13.975Z,15.90
2018-06-14T23:23:42.427Z,15.90
2018-06-14T23:26:10.953Z,16.00
2018-06-14T23:28:39.545Z,15.90
2018-06-14T23:31:08.093Z,15.90
2018-06-14T23:36:04.745Z,15.90
2018-06-14T23:38:33.296Z,16.00
2018-06-14T23:41:01.743Z,15.90
2018-06-14T23:43:30.159Z,15.90
2018-06-14T23:45:58.584Z,15.90
2018-06-14T23:48:27.014Z,15.90
2018-06-14T23:50:55.434Z,15.90
2018-06-14T23:53:23.887Z,15.80
2018-06-14T23:55:52.318Z,15.90
2018-06-14T23:58:20.762Z,15.80
